sensor_id;sensor_type;location;lat;lon;timestamp;P1;durP1;ratioP1;P2;durP2;ratioP2
52434;SDS011;38354;52.892;6.148;2023-02-24T04:00:45;5.32;;;1.55;;
52434;SDS011;38354;52.892;6.148;2023-02-24T04:03:31;7.47;;;1.02;;
52434;SDS011;38354;52.892;6.148;2023-02-24T04:06:12;7.75;;;1.30;;
52434;SDS011;38354;52.892;6.148;2023-02-24T04:08:50;7.10;;;1.27;;
52434;SDS011;38354;52.892;6.148;2023-02-24T04:14:07;4.90;;;0.80;;
52434;SDS011;38354;52.892;6.148;2023-02-24T04:19:28;4.95;;;0.82;;
52434;SDS011;38354;52.892;6.148;2023-02-24T04:22:02;11.63;;;1.40;;
52434;SDS011;38354;52.892;6.148;2023-02-24T04:24:34;5.60;;;1.23;;
52434;SDS011;38354;52.892;6.148;2023-02-24T04:27:01;6.78;;;1.38;;
52434;SDS011;38354;52.892;6.148;2023-02-24T04:29:31;9.80;;;1.48;;
52434;SDS011;38354;52.892;6.148;2023-02-24T04:32:09;10.15;;;1.30;;
52434;SDS011;38354;52.892;6.148;2023-02-24T04:34:37;7.85;;;1.40;;
52434;SDS011;38354;52.892;6.148;2023-02-24T04:37:04;8.60;;;1.20;;
52434;SDS011;38354;52.892;6.148;2023-02-24T04:39:30;7.35;;;1.17;;
52434;SDS011;38354;52.892;6.148;2023-02-24T04:41:56;7.70;;;1.02;;
52434;SDS011;38354;52.892;6.148;2023-02-24T04:44:22;11.52;;;2.55;;
52434;SDS011;38354;52.892;6.148;2023-02-24T04:46:50;8.88;;;1.17;;
52434;SDS011;38354;52.892;6.148;2023-02-24T04:49:16;9.68;;;1.33;;
52434;SDS011;38354;52.892;6.148;2023-02-24T04:51:44;12.98;;;2.22;;
52434;SDS011;38354;52.892;6.148;2023-02-24T04:54:11;9.88;;;2.22;;
52434;SDS011;38354;52.892;6.148;2023-02-24T04:56:41;6.07;;;1.30;;
52434;SDS011;38354;52.892;6.148;2023-02-24T04:59:12;8.38;;;2.13;;
52434;SDS011;38354;52.892;6.148;2023-02-24T05:01:38;10.23;;;1.90;;
52434;SDS011;38354;52.892;6.148;2023-02-24T05:04:06;7.18;;;2.05;;
52434;SDS011;38354;52.892;6.148;2023-02-24T05:06:33;11.57;;;1.48;;
52434;SDS011;38354;52.892;6.148;2023-02-24T05:09:00;5.95;;;1.30;;
52434;SDS011;38354;52.892;6.148;2023-02-24T05:11:34;8.38;;;1.30;;
52434;SDS011;38354;52.892;6.148;2023-02-24T05:14:00;9.10;;;1.70;;
52434;SDS011;38354;52.892;6.148;2023-02-24T05:16:28;9.77;;;1.40;;
52434;SDS011;38354;52.892;6.148;2023-02-24T05:18:54;4.97;;;1.10;;
52434;SDS011;38354;52.892;6.148;2023-02-24T05:21:38;8.30;;;1.05;;
52434;SDS011;38354;52.892;6.148;2023-02-24T05:24:05;11.75;;;2.28;;
52434;SDS011;38354;52.892;6.148;2023-02-24T05:26:33;8.93;;;1.75;;
52434;SDS011;38354;52.892;6.148;2023-02-24T05:29:00;11.77;;;1.75;;
52434;SDS011;38354;52.892;6.148;2023-02-24T05:31:27;13.07;;;1.98;;
52434;SDS011;38354;52.892;6.148;2023-02-24T05:33:59;11.18;;;1.50;;
52434;SDS011;38354;52.892;6.148;2023-02-24T05:36:28;6.85;;;1.58;;
52434;SDS011;38354;52.892;6.148;2023-02-24T05:38:58;13.98;;;1.30;;
52434;SDS011;38354;52.892;6.148;2023-02-24T05:41:32;9.45;;;1.80;;
52434;SDS011;38354;52.892;6.148;2023-02-24T05:44:03;9.95;;;1.77;;
52434;SDS011;38354;52.892;6.148;2023-02-24T05:46:34;9.95;;;1.67;;
52434;SDS011;38354;52.892;6.148;2023-02-24T05:49:03;11.48;;;1.60;;
52434;SDS011;38354;52.892;6.148;2023-02-24T05:51:33;8.70;;;1.23;;
52434;SDS011;38354;52.892;6.148;2023-02-24T05:54:01;11.50;;;2.00;;
52434;SDS011;38354;52.892;6.148;2023-02-24T05:56:32;13.52;;;2.72;;
52434;SDS011;38354;52.892;6.148;2023-02-24T05:59:00;8.07;;;1.40;;
52434;SDS011;38354;52.892;6.148;2023-02-24T06:01:27;14.60;;;1.98;;
52434;SDS011;38354;52.892;6.148;2023-02-24T06:03:54;8.25;;;2.17;;
52434;SDS011;38354;52.892;6.148;2023-02-24T06:06:20;9.55;;;2.00;;
52434;SDS011;38354;52.892;6.148;2023-02-24T06:08:47;15.32;;;2.13;;
52434;SDS011;38354;52.892;6.148;2023-02-24T06:11:17;17.58;;;2.15;;
52434;SDS011;38354;52.892;6.148;2023-02-24T06:13:44;10.60;;;2.10;;
52434;SDS011;38354;52.892;6.148;2023-02-24T06:16:13;10.70;;;1.63;;
52434;SDS011;38354;52.892;6.148;2023-02-24T06:18:40;12.48;;;2.33;;
52434;SDS011;38354;52.892;6.148;2023-02-24T06:21:06;12.35;;;2.40;;
52434;SDS011;38354;52.892;6.148;2023-02-24T06:23:35;7.22;;;2.20;;
52434;SDS011;38354;52.892;6.148;2023-02-24T06:26:01;12.63;;;2.25;;
52434;SDS011;38354;52.892;6.148;2023-02-24T06:28:28;11.27;;;3.15;;
52434;SDS011;38354;52.892;6.148;2023-02-24T06:30:55;18.98;;;2.45;;
52434;SDS011;38354;52.892;6.148;2023-02-24T06:33:20;15.68;;;2.58;;
52434;SDS011;38354;52.892;6.148;2023-02-24T06:35:47;12.13;;;2.80;;
52434;SDS011;38354;52.892;6.148;2023-02-24T06:38:13;14.02;;;3.50;;
52434;SDS011;38354;52.892;6.148;2023-02-24T06:40:41;9.70;;;2.78;;
52434;SDS011;38354;52.892;6.148;2023-02-24T06:43:07;13.65;;;3.55;;
52434;SDS011;38354;52.892;6.148;2023-02-24T06:45:34;14.48;;;3.75;;
52434;SDS011;38354;52.892;6.148;2023-02-24T06:48:00;19.55;;;4.15;;
52434;SDS011;38354;52.892;6.148;2023-02-24T06:50:27;27.27;;;4.00;;
52434;SDS011;38354;52.892;6.148;2023-02-24T06:52:56;19.67;;;4.00;;
52434;SDS011;38354;52.892;6.148;2023-02-24T06:55:25;13.85;;;3.83;;
52434;SDS011;38354;52.892;6.148;2023-02-24T06:57:55;13.82;;;3.55;;
52434;SDS011;38354;52.892;6.148;2023-02-24T07:00:26;15.65;;;3.75;;
52434;SDS011;38354;52.892;6.148;2023-02-24T07:03:22;18.90;;;3.25;;
52434;SDS011;38354;52.892;6.148;2023-02-24T07:06:03;19.15;;;4.32;;
52434;SDS011;38354;52.892;6.148;2023-02-24T07:08:48;18.58;;;3.22;;
52434;SDS011;38354;52.892;6.148;2023-02-24T07:11:16;18.52;;;4.10;;
52434;SDS011;38354;52.892;6.148;2023-02-24T07:13:42;14.52;;;3.20;;
52434;SDS011;38354;52.892;6.148;2023-02-24T07:16:16;17.05;;;3.85;;
52434;SDS011;38354;52.892;6.148;2023-02-24T07:18:43;17.02;;;3.42;;
52434;SDS011;38354;52.892;6.148;2023-02-24T07:21:13;19.65;;;3.72;;
52434;SDS011;38354;52.892;6.148;2023-02-24T07:23:41;17.77;;;3.80;;
52434;SDS011;38354;52.892;6.148;2023-02-24T07:26:09;13.30;;;2.97;;
52434;SDS011;38354;52.892;6.148;2023-02-24T07:28:40;20.48;;;5.35;;
52434;SDS011;38354;52.892;6.148;2023-02-24T07:31:08;15.70;;;3.85;;
52434;SDS011;38354;52.892;6.148;2023-02-24T07:33:36;18.63;;;5.00;;
52434;SDS011;38354;52.892;6.148;2023-02-24T07:36:06;17.75;;;3.83;;
52434;SDS011;38354;52.892;6.148;2023-02-24T07:38:35;24.42;;;3.95;;
52434;SDS011;38354;52.892;6.148;2023-02-24T07:41:02;16.70;;;3.05;;
52434;SDS011;38354;52.892;6.148;2023-02-24T07:43:30;20.90;;;3.35;;
52434;SDS011;38354;52.892;6.148;2023-02-24T07:46:03;18.40;;;4.22;;
52434;SDS011;38354;52.892;6.148;2023-02-24T07:48:37;23.55;;;4.03;;
52434;SDS011;38354;52.892;6.148;2023-02-24T07:51:07;19.00;;;3.53;;
52434;SDS011;38354;52.892;6.148;2023-02-24T07:53:39;23.05;;;4.00;;
52434;SDS011;38354;52.892;6.148;2023-02-24T07:56:09;23.35;;;3.08;;
52434;SDS011;38354;52.892;6.148;2023-02-24T07:58:45;11.02;;;2.58;;
52434;SDS011;38354;52.892;6.148;2023-02-24T08:01:15;18.85;;;3.65;;
52434;SDS011;38354;52.892;6.148;2023-02-24T08:03:54;30.00;;;4.15;;
52434;SDS011;38354;52.892;6.148;2023-02-24T08:06:22;26.77;;;4.57;;
52434;SDS011;38354;52.892;6.148;2023-02-24T08:08:54;33.97;;;5.20;;
52434;SDS011;38354;52.892;6.148;2023-02-24T08:11:24;18.85;;;4.30;;
52434;SDS011;38354;52.892;6.148;2023-02-24T08:13:51;24.25;;;5.15;;
52434;SDS011;38354;52.892;6.148;2023-02-24T08:16:17;22.17;;;4.15;;
52434;SDS011;38354;52.892;6.148;2023-02-24T08:18:43;20.40;;;4.28;;
52434;SDS011;38354;52.892;6.148;2023-02-24T08:21:16;27.02;;;4.55;;
52434;SDS011;38354;52.892;6.148;2023-02-24T08:23:45;24.48;;;4.82;;
52434;SDS011;38354;52.892;6.148;2023-02-24T08:26:11;18.63;;;4.53;;
52434;SDS011;38354;52.892;6.148;2023-02-24T08:28:38;16.48;;;4.03;;
52434;SDS011;38354;52.892;6.148;2023-02-24T08:31:04;20.65;;;5.13;;
52434;SDS011;38354;52.892;6.148;2023-02-24T08:33:30;21.60;;;4.60;;
52434;SDS011;38354;52.892;6.148;2023-02-24T08:35:56;25.17;;;5.25;;
52434;SDS011;38354;52.892;6.148;2023-02-24T08:38:25;26.23;;;5.70;;
52434;SDS011;38354;52.892;6.148;2023-02-24T08:41:03;24.63;;;5.22;;
52434;SDS011;38354;52.892;6.148;2023-02-24T08:43:36;19.13;;;4.10;;
52434;SDS011;38354;52.892;6.148;2023-02-24T08:46:05;24.48;;;5.47;;
52434;SDS011;38354;52.892;6.148;2023-02-24T08:51:38;19.70;;;5.18;;
52434;SDS011;38354;52.892;6.148;2023-02-24T08:54:18;20.20;;;4.57;;
52434;SDS011;38354;52.892;6.148;2023-02-24T08:56:51;20.67;;;4.47;;
52434;SDS011;38354;52.892;6.148;2023-02-24T08:59:20;20.02;;;5.13;;
52434;SDS011;38354;52.892;6.148;2023-02-24T09:02:02;14.82;;;4.30;;
52434;SDS011;38354;52.892;6.148;2023-02-24T09:04:48;22.85;;;5.75;;
52434;SDS011;38354;52.892;6.148;2023-02-24T09:07:20;17.05;;;5.68;;
52434;SDS011;38354;52.892;6.148;2023-02-24T09:09:51;16.85;;;4.93;;
52434;SDS011;38354;52.892;6.148;2023-02-24T09:12:21;19.92;;;5.20;;
52434;SDS011;38354;52.892;6.148;2023-02-24T09:14:52;16.50;;;4.88;;
52434;SDS011;38354;52.892;6.148;2023-02-24T09:17:20;13.55;;;5.28;;
52434;SDS011;38354;52.892;6.148;2023-02-24T09:20:05;21.55;;;4.88;;
52434;SDS011;38354;52.892;6.148;2023-02-24T09:22:53;13.93;;;4.57;;
52434;SDS011;38354;52.892;6.148;2023-02-24T09:25:32;12.23;;;4.55;;
52434;SDS011;38354;52.892;6.148;2023-02-24T09:28:06;13.18;;;5.22;;
52434;SDS011;38354;52.892;6.148;2023-02-24T09:30:35;17.02;;;5.13;;
52434;SDS011;38354;52.892;6.148;2023-02-24T09:33:10;15.77;;;5.80;;
52434;SDS011;38354;52.892;6.148;2023-02-24T09:35:45;16.60;;;4.78;;
52434;SDS011;38354;52.892;6.148;2023-02-24T09:38:15;17.70;;;5.10;;
52434;SDS011;38354;52.892;6.148;2023-02-24T09:40:44;17.27;;;6.47;;
52434;SDS011;38354;52.892;6.148;2023-02-24T09:43:15;17.75;;;6.18;;
52434;SDS011;38354;52.892;6.148;2023-02-24T09:45:52;19.30;;;6.60;;
52434;SDS011;38354;52.892;6.148;2023-02-24T09:48:40;23.85;;;7.38;;
52434;SDS011;38354;52.892;6.148;2023-02-24T09:51:13;15.02;;;6.35;;
52434;SDS011;38354;52.892;6.148;2023-02-24T09:53:51;13.93;;;6.40;;
52434;SDS011;38354;52.892;6.148;2023-02-24T09:56:31;20.65;;;6.70;;
52434;SDS011;38354;52.892;6.148;2023-02-24T10:02:11;20.83;;;6.97;;
52434;SDS011;38354;52.892;6.148;2023-02-24T10:05:02;18.77;;;7.70;;
52434;SDS011;38354;52.892;6.148;2023-02-24T10:07:43;25.65;;;9.50;;
52434;SDS011;38354;52.892;6.148;2023-02-24T10:10:17;25.27;;;11.27;;
52434;SDS011;38354;52.892;6.148;2023-02-24T10:15:54;27.95;;;7.88;;
52434;SDS011;38354;52.892;6.148;2023-02-24T10:21:43;30.35;;;8.50;;
52434;SDS011;38354;52.892;6.148;2023-02-24T10:24:40;35.65;;;7.80;;
52434;SDS011;38354;52.892;6.148;2023-02-24T10:32:54;29.45;;;5.75;;
52434;SDS011;38354;52.892;6.148;2023-02-24T10:35:22;30.50;;;6.85;;
52434;SDS011;38354;52.892;6.148;2023-02-24T10:37:50;35.45;;;5.65;;
52434;SDS011;38354;52.892;6.148;2023-02-24T10:40:17;31.67;;;4.90;;
52434;SDS011;38354;52.892;6.148;2023-02-24T10:43:04;26.23;;;5.10;;
52434;SDS011;38354;52.892;6.148;2023-02-24T10:45:42;33.67;;;5.88;;
52434;SDS011;38354;52.892;6.148;2023-02-24T10:48:23;24.27;;;3.33;;
52434;SDS011;38354;52.892;6.148;2023-02-24T10:50:51;19.73;;;3.88;;
52434;SDS011;38354;52.892;6.148;2023-02-24T10:53:19;28.02;;;3.92;;
52434;SDS011;38354;52.892;6.148;2023-02-24T10:56:00;19.70;;;3.50;;
52434;SDS011;38354;52.892;6.148;2023-02-24T11:05:21;25.83;;;4.03;;
52434;SDS011;38354;52.892;6.148;2023-02-24T11:10:40;26.50;;;3.80;;
52434;SDS011;38354;52.892;6.148;2023-02-24T11:13:17;35.20;;;5.10;;
52434;SDS011;38354;52.892;6.148;2023-02-24T11:16:02;28.40;;;4.95;;
52434;SDS011;38354;52.892;6.148;2023-02-24T11:18:50;24.90;;;3.70;;
52434;SDS011;38354;52.892;6.148;2023-02-24T11:21:17;29.23;;;5.05;;
52434;SDS011;38354;52.892;6.148;2023-02-24T11:23:48;30.48;;;5.43;;
52434;SDS011;38354;52.892;6.148;2023-02-24T11:26:17;27.17;;;5.07;;
52434;SDS011;38354;52.892;6.148;2023-02-24T11:36:43;28.13;;;4.05;;
52434;SDS011;38354;52.892;6.148;2023-02-24T11:39:35;34.28;;;5.03;;
52434;SDS011;38354;52.892;6.148;2023-02-24T11:42:07;23.35;;;4.82;;
52434;SDS011;38354;52.892;6.148;2023-02-24T11:44:45;35.90;;;5.65;;
52434;SDS011;38354;52.892;6.148;2023-02-24T11:47:28;27.58;;;4.55;;
52434;SDS011;38354;52.892;6.148;2023-02-24T11:52:47;32.50;;;5.97;;
52434;SDS011;38354;52.892;6.148;2023-02-24T11:55:20;28.40;;;5.00;;
52434;SDS011;38354;52.892;6.148;2023-02-24T11:58:22;29.55;;;4.25;;
52434;SDS011;38354;52.892;6.148;2023-02-24T12:00:58;33.47;;;4.20;;
52434;SDS011;38354;52.892;6.148;2023-02-24T12:04:08;25.08;;;4.18;;
52434;SDS011;38354;52.892;6.148;2023-02-24T12:06:38;19.75;;;3.40;;
52434;SDS011;38354;52.892;6.148;2023-02-24T12:09:18;23.63;;;3.95;;
52434;SDS011;38354;52.892;6.148;2023-02-24T12:11:52;12.43;;;2.33;;
52434;SDS011;38354;52.892;6.148;2023-02-24T12:17:10;20.63;;;2.63;;
52434;SDS011;38354;52.892;6.148;2023-02-24T12:19:59;15.18;;;2.38;;
52434;SDS011;38354;52.892;6.148;2023-02-24T12:22:39;27.25;;;3.70;;
52434;SDS011;38354;52.892;6.148;2023-02-24T12:25:13;13.95;;;2.13;;
52434;SDS011;38354;52.892;6.148;2023-02-24T12:27:57;12.55;;;1.73;;
52434;SDS011;38354;52.892;6.148;2023-02-24T12:33:25;16.23;;;2.33;;
52434;SDS011;38354;52.892;6.148;2023-02-24T12:36:07;14.90;;;2.10;;
52434;SDS011;38354;52.892;6.148;2023-02-24T12:38:49;17.23;;;2.33;;
52434;SDS011;38354;52.892;6.148;2023-02-24T12:41:41;15.18;;;2.15;;
52434;SDS011;38354;52.892;6.148;2023-02-24T12:46:48;16.10;;;2.15;;
52434;SDS011;38354;52.892;6.148;2023-02-24T13:00:09;15.65;;;2.25;;
52434;SDS011;38354;52.892;6.148;2023-02-24T13:02:54;16.73;;;2.03;;
52434;SDS011;38354;52.892;6.148;2023-02-24T13:05:36;12.13;;;1.50;;
52434;SDS011;38354;52.892;6.148;2023-02-24T13:08:17;14.18;;;2.35;;
52434;SDS011;38354;52.892;6.148;2023-02-24T13:13:29;14.95;;;1.60;;
52434;SDS011;38354;52.892;6.148;2023-02-24T13:16:04;9.95;;;0.95;;
52434;SDS011;38354;52.892;6.148;2023-02-24T13:18:30;9.25;;;1.30;;
52434;SDS011;38354;52.892;6.148;2023-02-24T13:21:08;4.72;;;0.80;;
52434;SDS011;38354;52.892;6.148;2023-02-24T13:23:55;9.23;;;1.15;;
52434;SDS011;38354;52.892;6.148;2023-02-24T13:26:25;7.78;;;0.90;;
52434;SDS011;38354;52.892;6.148;2023-02-24T13:28:59;8.65;;;1.35;;
52434;SDS011;38354;52.892;6.148;2023-02-24T13:31:37;5.95;;;1.02;;
52434;SDS011;38354;52.892;6.148;2023-02-24T13:34:12;3.65;;;0.82;;
52434;SDS011;38354;52.892;6.148;2023-02-24T13:36:46;7.93;;;0.80;;
52434;SDS011;38354;52.892;6.148;2023-02-24T13:39:24;3.63;;;0.57;;
52434;SDS011;38354;52.892;6.148;2023-02-24T13:44:57;3.28;;;0.63;;
52434;SDS011;38354;52.892;6.148;2023-02-24T13:56:02;5.10;;;0.85;;
52434;SDS011;38354;52.892;6.148;2023-02-24T14:01:58;11.20;;;1.40;;
52434;SDS011;38354;52.892;6.148;2023-02-24T14:04:31;6.18;;;1.00;;
52434;SDS011;38354;52.892;6.148;2023-02-24T14:07:03;10.38;;;1.30;;
52434;SDS011;38354;52.892;6.148;2023-02-24T14:09:36;10.83;;;1.50;;
52434;SDS011;38354;52.892;6.148;2023-02-24T14:12:10;8.52;;;1.30;;
52434;SDS011;38354;52.892;6.148;2023-02-24T14:14:39;11.48;;;1.70;;
52434;SDS011;38354;52.892;6.148;2023-02-24T14:17:17;11.88;;;1.75;;
52434;SDS011;38354;52.892;6.148;2023-02-24T14:19:52;7.20;;;0.93;;
52434;SDS011;38354;52.892;6.148;2023-02-24T14:22:42;10.50;;;1.45;;
52434;SDS011;38354;52.892;6.148;2023-02-24T14:25:09;10.35;;;1.13;;
52434;SDS011;38354;52.892;6.148;2023-02-24T14:27:36;9.30;;;1.95;;
52434;SDS011;38354;52.892;6.148;2023-02-24T14:30:03;8.95;;;1.50;;
52434;SDS011;38354;52.892;6.148;2023-02-24T14:32:30;10.38;;;1.27;;
52434;SDS011;38354;52.892;6.148;2023-02-24T14:34:57;14.27;;;1.88;;
52434;SDS011;38354;52.892;6.148;2023-02-24T14:37:27;10.70;;;2.60;;
52434;SDS011;38354;52.892;6.148;2023-02-24T14:39:58;11.85;;;1.83;;
52434;SDS011;38354;52.892;6.148;2023-02-24T14:42:25;20.90;;;2.53;;
52434;SDS011;38354;52.892;6.148;2023-02-24T14:44:56;8.43;;;1.40;;
52434;SDS011;38354;52.892;6.148;2023-02-24T14:47:26;5.97;;;1.45;;
52434;SDS011;38354;52.892;6.148;2023-02-24T14:50:03;3.78;;;0.60;;
52434;SDS011;38354;52.892;6.148;2023-02-24T14:52:32;3.97;;;0.82;;
52434;SDS011;38354;52.892;6.148;2023-02-24T14:57:35;10.50;;;1.00;;
52434;SDS011;38354;52.892;6.148;2023-02-24T15:00:06;9.95;;;1.80;;
52434;SDS011;38354;52.892;6.148;2023-02-24T15:05:09;6.80;;;1.02;;
52434;SDS011;38354;52.892;6.148;2023-02-24T15:07:36;13.20;;;1.95;;
52434;SDS011;38354;52.892;6.148;2023-02-24T15:10:03;7.05;;;1.20;;
52434;SDS011;38354;52.892;6.148;2023-02-24T15:15:12;14.70;;;1.85;;
52434;SDS011;38354;52.892;6.148;2023-02-24T15:17:48;19.42;;;2.55;;
52434;SDS011;38354;52.892;6.148;2023-02-24T15:22:55;9.82;;;2.17;;
52434;SDS011;38354;52.892;6.148;2023-02-24T15:25:22;15.18;;;2.58;;
52434;SDS011;38354;52.892;6.148;2023-02-24T15:27:54;10.57;;;1.30;;
52434;SDS011;38354;52.892;6.148;2023-02-24T15:30:35;14.00;;;1.40;;
52434;SDS011;38354;52.892;6.148;2023-02-24T15:33:06;11.32;;;1.75;;
52434;SDS011;38354;52.892;6.148;2023-02-24T15:35:57;15.73;;;2.20;;
52434;SDS011;38354;52.892;6.148;2023-02-24T15:38:34;16.60;;;2.50;;
52434;SDS011;38354;52.892;6.148;2023-02-24T15:41:03;12.60;;;2.08;;
52434;SDS011;38354;52.892;6.148;2023-02-24T15:48:43;15.50;;;1.70;;
52434;SDS011;38354;52.892;6.148;2023-02-24T15:51:23;16.38;;;2.38;;
52434;SDS011;38354;52.892;6.148;2023-02-24T15:53:56;10.73;;;1.48;;
52434;SDS011;38354;52.892;6.148;2023-02-24T15:56:23;6.25;;;1.45;;
52434;SDS011;38354;52.892;6.148;2023-02-24T15:58:49;16.90;;;1.73;;
52434;SDS011;38354;52.892;6.148;2023-02-24T16:01:15;11.20;;;2.10;;
52434;SDS011;38354;52.892;6.148;2023-02-24T16:03:40;16.13;;;2.65;;
52434;SDS011;38354;52.892;6.148;2023-02-24T16:06:09;18.08;;;2.13;;
52434;SDS011;38354;52.892;6.148;2023-02-24T16:08:42;9.43;;;1.73;;
52434;SDS011;38354;52.892;6.148;2023-02-24T16:11:11;14.98;;;1.88;;
52434;SDS011;38354;52.892;6.148;2023-02-24T16:13:38;8.65;;;1.90;;
52434;SDS011;38354;52.892;6.148;2023-02-24T16:16:04;13.77;;;2.20;;
52434;SDS011;38354;52.892;6.148;2023-02-24T16:18:30;16.77;;;2.88;;
52434;SDS011;38354;52.892;6.148;2023-02-24T16:20:57;17.70;;;1.95;;
52434;SDS011;38354;52.892;6.148;2023-02-24T16:23:23;14.73;;;3.20;;
52434;SDS011;38354;52.892;6.148;2023-02-24T16:25:52;13.77;;;2.42;;
52434;SDS011;38354;52.892;6.148;2023-02-24T16:28:23;16.17;;;1.90;;
52434;SDS011;38354;52.892;6.148;2023-02-24T16:30:49;21.05;;;3.65;;
52434;SDS011;38354;52.892;6.148;2023-02-24T16:33:16;14.77;;;2.47;;
52434;SDS011;38354;52.892;6.148;2023-02-24T16:35:42;18.05;;;2.55;;
52434;SDS011;38354;52.892;6.148;2023-02-24T16:38:16;15.02;;;2.72;;
52434;SDS011;38354;52.892;6.148;2023-02-24T16:40:43;19.45;;;2.92;;
52434;SDS011;38354;52.892;6.148;2023-02-24T16:43:11;20.23;;;2.70;;
52434;SDS011;38354;52.892;6.148;2023-02-24T16:45:37;12.38;;;2.35;;
52434;SDS011;38354;52.892;6.148;2023-02-24T16:48:04;14.63;;;2.88;;
52434;SDS011;38354;52.892;6.148;2023-02-24T16:50:34;11.48;;;1.77;;
52434;SDS011;38354;52.892;6.148;2023-02-24T16:53:10;16.90;;;3.30;;
52434;SDS011;38354;52.892;6.148;2023-02-24T16:55:38;12.30;;;2.15;;
52434;SDS011;38354;52.892;6.148;2023-02-24T16:58:04;14.13;;;2.97;;
52434;SDS011;38354;52.892;6.148;2023-02-24T17:00:29;18.58;;;3.75;;
52434;SDS011;38354;52.892;6.148;2023-02-24T17:02:56;22.95;;;3.22;;
52434;SDS011;38354;52.892;6.148;2023-02-24T17:05:22;12.18;;;2.28;;
52434;SDS011;38354;52.892;6.148;2023-02-24T17:07:50;15.52;;;2.78;;
52434;SDS011;38354;52.892;6.148;2023-02-24T17:10:18;11.82;;;2.97;;
52434;SDS011;38354;52.892;6.148;2023-02-24T17:12:45;13.95;;;2.03;;
52434;SDS011;38354;52.892;6.148;2023-02-24T17:15:15;18.15;;;2.72;;
52434;SDS011;38354;52.892;6.148;2023-02-24T17:17:43;15.95;;;2.13;;
52434;SDS011;38354;52.892;6.148;2023-02-24T17:20:12;16.83;;;3.15;;
52434;SDS011;38354;52.892;6.148;2023-02-24T17:22:44;20.40;;;2.53;;
52434;SDS011;38354;52.892;6.148;2023-02-24T17:25:17;36.67;;;3.42;;
52434;SDS011;38354;52.892;6.148;2023-02-24T17:27:44;13.90;;;2.55;;
52434;SDS011;38354;52.892;6.148;2023-02-24T17:30:11;21.23;;;2.80;;
52434;SDS011;38354;52.892;6.148;2023-02-24T17:32:38;12.05;;;2.50;;
52434;SDS011;38354;52.892;6.148;2023-02-24T17:35:04;24.85;;;4.72;;
52434;SDS011;38354;52.892;6.148;2023-02-24T17:37:30;17.08;;;3.20;;
52434;SDS011;38354;52.892;6.148;2023-02-24T17:39:56;28.88;;;3.95;;
52434;SDS011;38354;52.892;6.148;2023-02-24T17:42:21;28.27;;;4.13;;
52434;SDS011;38354;52.892;6.148;2023-02-24T17:44:47;25.42;;;4.78;;
52434;SDS011;38354;52.892;6.148;2023-02-24T17:47:13;27.73;;;4.50;;
52434;SDS011;38354;52.892;6.148;2023-02-24T17:49:38;37.70;;;4.70;;
52434;SDS011;38354;52.892;6.148;2023-02-24T17:52:04;32.28;;;4.53;;
52434;SDS011;38354;52.892;6.148;2023-02-24T17:54:30;32.28;;;4.57;;
52434;SDS011;38354;52.892;6.148;2023-02-24T17:56:55;36.17;;;4.82;;
52434;SDS011;38354;52.892;6.148;2023-02-24T17:59:21;32.88;;;4.68;;
52434;SDS011;38354;52.892;6.148;2023-02-24T18:01:47;30.67;;;4.93;;
52434;SDS011;38354;52.892;6.148;2023-02-24T18:04:12;34.97;;;4.75;;
52434;SDS011;38354;52.892;6.148;2023-02-24T18:06:39;30.88;;;4.68;;
52434;SDS011;38354;52.892;6.148;2023-02-24T18:09:05;33.20;;;4.45;;
52434;SDS011;38354;52.892;6.148;2023-02-24T18:11:31;25.33;;;3.53;;
52434;SDS011;38354;52.892;6.148;2023-02-24T18:13:58;33.65;;;4.10;;
52434;SDS011;38354;52.892;6.148;2023-02-24T18:16:24;25.83;;;4.68;;
52434;SDS011;38354;52.892;6.148;2023-02-24T18:18:50;24.58;;;4.55;;
52434;SDS011;38354;52.892;6.148;2023-02-24T18:21:16;22.15;;;4.63;;
52434;SDS011;38354;52.892;6.148;2023-02-24T18:23:42;19.75;;;3.50;;
52434;SDS011;38354;52.892;6.148;2023-02-24T18:26:08;20.50;;;2.80;;
52434;SDS011;38354;52.892;6.148;2023-02-24T18:28:35;12.75;;;2.38;;
52434;SDS011;38354;52.892;6.148;2023-02-24T18:31:08;15.95;;;2.90;;
52434;SDS011;38354;52.892;6.148;2023-02-24T18:33:34;12.70;;;2.13;;
52434;SDS011;38354;52.892;6.148;2023-02-24T18:36:00;13.25;;;1.75;;
52434;SDS011;38354;52.892;6.148;2023-02-24T18:38:27;16.42;;;2.38;;
52434;SDS011;38354;52.892;6.148;2023-02-24T18:40:56;8.65;;;1.40;;
52434;SDS011;38354;52.892;6.148;2023-02-24T18:43:26;12.10;;;2.47;;
52434;SDS011;38354;52.892;6.148;2023-02-24T18:45:59;11.98;;;2.85;;
52434;SDS011;38354;52.892;6.148;2023-02-24T18:48:26;16.38;;;2.88;;
52434;SDS011;38354;52.892;6.148;2023-02-24T18:50:54;20.27;;;2.15;;
52434;SDS011;38354;52.892;6.148;2023-02-24T18:53:21;20.48;;;2.80;;
52434;SDS011;38354;52.892;6.148;2023-02-24T18:55:48;18.17;;;2.50;;
52434;SDS011;38354;52.892;6.148;2023-02-24T18:58:14;14.25;;;4.03;;
52434;SDS011;38354;52.892;6.148;2023-02-24T19:00:40;17.48;;;2.92;;
52434;SDS011;38354;52.892;6.148;2023-02-24T19:03:07;20.77;;;2.92;;
52434;SDS011;38354;52.892;6.148;2023-02-24T19:05:33;19.08;;;2.67;;
52434;SDS011;38354;52.892;6.148;2023-02-24T19:07:58;16.13;;;2.88;;
52434;SDS011;38354;52.892;6.148;2023-02-24T19:10:24;18.92;;;2.35;;
52434;SDS011;38354;52.892;6.148;2023-02-24T19:12:49;15.38;;;2.78;;
52434;SDS011;38354;52.892;6.148;2023-02-24T19:15:16;23.85;;;3.00;;
52434;SDS011;38354;52.892;6.148;2023-02-24T19:17:43;20.35;;;3.40;;
52434;SDS011;38354;52.892;6.148;2023-02-24T19:20:10;23.75;;;4.10;;
52434;SDS011;38354;52.892;6.148;2023-02-24T19:22:39;14.45;;;2.45;;
52434;SDS011;38354;52.892;6.148;2023-02-24T19:25:05;19.83;;;3.33;;
52434;SDS011;38354;52.892;6.148;2023-02-24T19:27:31;17.98;;;3.20;;
52434;SDS011;38354;52.892;6.148;2023-02-24T19:29:56;19.90;;;3.22;;
52434;SDS011;38354;52.892;6.148;2023-02-24T19:32:22;15.13;;;3.08;;
52434;SDS011;38354;52.892;6.148;2023-02-24T19:34:48;13.25;;;2.00;;
52434;SDS011;38354;52.892;6.148;2023-02-24T19:37:13;9.30;;;1.90;;
52434;SDS011;38354;52.892;6.148;2023-02-24T19:39:39;20.77;;;3.20;;
52434;SDS011;38354;52.892;6.148;2023-02-24T19:42:04;13.45;;;2.13;;
52434;SDS011;38354;52.892;6.148;2023-02-24T19:44:31;15.23;;;2.33;;
52434;SDS011;38354;52.892;6.148;2023-02-24T19:46:57;9.80;;;1.80;;
52434;SDS011;38354;52.892;6.148;2023-02-24T19:49:23;9.93;;;1.52;;
52434;SDS011;38354;52.892;6.148;2023-02-24T19:51:53;17.27;;;1.73;;
52434;SDS011;38354;52.892;6.148;2023-02-24T19:54:19;19.60;;;2.00;;
52434;SDS011;38354;52.892;6.148;2023-02-24T19:56:46;13.50;;;2.53;;
52434;SDS011;38354;52.892;6.148;2023-02-24T19:59:13;18.80;;;3.35;;
52434;SDS011;38354;52.892;6.148;2023-02-24T20:01:39;18.77;;;2.38;;
52434;SDS011;38354;52.892;6.148;2023-02-24T20:04:05;19.25;;;2.97;;
52434;SDS011;38354;52.892;6.148;2023-02-24T20:06:36;10.63;;;2.00;;
52434;SDS011;38354;52.892;6.148;2023-02-24T20:09:04;16.30;;;2.78;;
52434;SDS011;38354;52.892;6.148;2023-02-24T20:11:35;14.50;;;2.28;;
52434;SDS011;38354;52.892;6.148;2023-02-24T20:14:02;12.77;;;2.63;;
52434;SDS011;38354;52.892;6.148;2023-02-24T20:16:28;12.30;;;1.95;;
52434;SDS011;38354;52.892;6.148;2023-02-24T20:18:58;13.52;;;1.40;;
52434;SDS011;38354;52.892;6.148;2023-02-24T20:21:24;13.15;;;1.60;;
52434;SDS011;38354;52.892;6.148;2023-02-24T20:23:50;10.82;;;1.85;;
52434;SDS011;38354;52.892;6.148;2023-02-24T20:26:16;11.88;;;1.83;;
52434;SDS011;38354;52.892;6.148;2023-02-24T20:28:42;13.57;;;1.60;;
52434;SDS011;38354;52.892;6.148;2023-02-24T20:31:09;12.15;;;1.55;;
52434;SDS011;38354;52.892;6.148;2023-02-24T20:33:39;14.07;;;2.92;;